Time;durP1;ratioP1;P1;durP2;ratioP2;P2;SDS_P1;SDS_P2;PMS_P1;PMS_P2;Temp;Humidity;BMP_temperature;BMP_pressure;BME280_temperature;BME280_humidity;BME280_pressure;Samples;Min_cycle;Max_cycle;Signal;HPM_P1;HPM_P2
2022/04/21 00:01:42;;;;;;;3.28;2.25;;;12.60;96.70;;;;;;5094357;28;20209;-59
2022/04/21 00:04:08;;;;;;;2.38;1.95;;;12.60;97.20;;;;;;5093977;28;20197;-59
2022/04/21 00:06:34;;;;;;;2.92;2.20;;;12.50;97.30;;;;;;5094155;28;20185;-60
2022/04/21 00:08:59;;;;;;;3.33;2.15;;;12.50;97.20;;;;;;5094026;28;20186;-59
2022/04/21 00:11:25;;;;;;;3.38;2.50;;;12.50;97.30;;;;;;5075768;28;20268;-60
2022/04/21 00:13:50;;;;;;;2.83;2.45;;;12.50;97.20;;;;;;5094082;28;20174;-59
2022/04/21 00:16:16;;;;;;;3.08;2.05;;;12.40;97.50;;;;;;5094007;28;20216;-59
2022/04/21 00:18:46;;;;;;;2.72;2.10;;;12.40;97.50;;;;;;5075960;28;20664;-59
2022/04/21 00:21:11;;;;;;;3.13;2.35;;;12.40;97.40;;;;;;5076080;28;20181;-59
2022/04/21 00:23:37;;;;;;;2.83;2.20;;;12.40;97.80;;;;;;5093857;28;20170;-59
2022/04/21 00:26:04;;;;;;;2.67;2.15;;;12.40;97.60;;;;;;5075607;28;21018;-59
2022/04/21 00:28:30;;;;;;;2.80;2.33;;;12.40;97.80;;;;;;5059501;28;20166;-59
2022/04/21 00:30:56;;;;;;;2.97;2.33;;;12.30;97.90;;;;;;5093720;28;20195;-59
2022/04/21 00:33:22;;;;;;;3.05;2.47;;;12.20;97.90;;;;;;5075782;28;20177;-59
2022/04/21 00:35:47;;;;;;;3.20;2.28;;;12.20;98.20;;;;;;5093749;28;20177;-59
2022/04/21 00:38:13;;;;;;;3.63;2.40;;;12.20;98.30;;;;;;5093599;28;20180;-59
2022/04/21 00:40:39;;;;;;;2.47;2.10;;;12.20;98.50;;;;;;5093554;28;20253;-59
2022/04/21 00:43:05;;;;;;;2.55;2.13;;;12.20;98.40;;;;;;5093301;28;20202;-59
2022/04/21 00:45:32;;;;;;;3.28;2.28;;;12.20;98.40;;;;;;5093233;28;20696;-59
2022/04/21 00:47:59;;;;;;;4.00;2.50;;;12.20;98.50;;;;;;5093175;28;20219;-59
2022/04/21 00:50:30;;;;;;;2.45;2.22;;;12.20;98.90;;;;;;5075796;28;20178;-60
2022/04/21 00:52:57;;;;;;;3.78;2.45;;;12.10;98.60;;;;;;5075489;28;20170;-59
2022/04/21 00:55:27;;;;;;;3.95;2.42;;;12.00;98.90;;;;;;5093484;28;20582;-59
2022/04/21 00:57:55;;;;;;;2.60;2.13;;;12.10;98.70;;;;;;5075716;28;20182;-59
2022/04/21 01:00:21;;;;;;;4.15;2.25;;;12.10;98.80;;;;;;5075164;28;20586;-59
2022/04/21 01:02:47;;;;;;;3.78;2.40;;;12.10;98.70;;;;;;5093198;28;20264;-59
2022/04/21 01:05:18;;;;;;;2.47;2.28;;;12.10;98.80;;;;;;5093484;28;20296;-59
2022/04/21 01:07:44;;;;;;;3.65;2.08;;;12.00;99.00;;;;;;5093117;28;20185;-59
2022/04/21 01:10:11;;;;;;;3.30;2.10;;;12.00;98.90;;;;;;5093421;28;20174;-59
2022/04/21 01:12:37;;;;;;;2.65;2.17;;;11.90;99.10;;;;;;5093325;28;20265;-59
2022/04/21 01:15:03;;;;;;;2.58;1.88;;;12.00;99.40;;;;;;5075341;28;20181;-59
2022/04/21 01:17:34;;;;;;;2.38;2.17;;;11.90;99.30;;;;;;5074916;28;20269;-59
2022/04/21 01:20:00;;;;;;;2.30;1.95;;;11.90;99.40;;;;;;5093071;28;20171;-59
2022/04/21 01:22:26;;;;;;;3.95;2.20;;;12.00;99.30;;;;;;5075410;28;20177;-59
2022/04/21 01:24:51;;;;;;;2.70;2.47;;;11.90;99.90;;;;;;5093198;28;20255;-59
2022/04/21 01:27:17;;;;;;;3.38;2.60;;;11.90;99.70;;;;;;5075216;28;20170;-60
2022/04/21 01:29:43;;;;;;;2.95;2.55;;;11.90;99.50;;;;;;5093056;28;20543;-59
2022/04/21 01:32:09;;;;;;;2.35;2.10;;;11.80;99.40;;;;;;5074867;28;20188;-59
2022/04/21 01:34:34;;;;;;;3.25;2.25;;;11.80;99.80;;;;;;5092923;28;20181;-59
2022/04/21 01:42:28;;;;;;;2.92;2.30;;;11.70;99.90;;;;;;5093368;28;20231;-59
2022/04/21 01:44:54;;;;;;;2.97;2.40;;;11.60;99.90;;;;;;5074738;28;20602;-59
2022/04/21 01:47:20;;;;;;;3.17;2.50;;;11.60;99.90;;;;;;5075118;28;20197;-60
2022/04/21 01:49:45;;;;;;;2.53;2.33;;;11.60;99.90;;;;;;5093064;28;20174;-59
2022/04/21 01:52:11;;;;;;;2.47;2.28;;;11.60;99.90;;;;;;5093142;28;20234;-59
2022/04/21 01:54:36;;;;;;;2.50;2.30;;;11.50;99.90;;;;;;5075039;28;20680;-59
2022/04/21 01:57:02;;;;;;;2.78;2.45;;;11.50;99.90;;;;;;5075113;28;20260;-59
2022/04/21 01:59:28;;;;;;;3.00;2.47;;;11.60;99.90;;;;;;5078468;28;20186;-59
2022/04/21 02:01:53;;;;;;;3.17;2.42;;;11.50;99.90;;;;;;5078629;28;20178;-59
2022/04/21 02:04:19;;;;;;;2.75;2.55;;;11.50;99.90;;;;;;5096178;28;20205;-59
2022/04/21 02:06:45;;;;;;;3.22;2.80;;;11.50;99.90;;;;;;5096588;28;20170;-59
2022/04/21 02:09:10;;;;;;;2.90;2.40;;;11.50;99.90;;;;;;5096356;28;20672;-59
2022/04/21 02:11:36;;;;;;;3.83;2.55;;;11.50;99.90;;;;;;5061617;28;20178;-59
2022/04/21 02:14:03;;;;;;;3.40;2.40;;;11.50;99.90;;;;;;5096381;28;20171;-59
2022/04/21 02:16:28;;;;;;;2.92;2.35;;;11.50;99.90;;;;;;5096211;28;20574;-59
2022/04/21 02:18:54;;;;;;;3.30;2.95;;;11.40;99.90;;;;;;5078228;28;20267;-59
2022/04/21 02:21:19;;;;;;;2.92;2.55;;;11.30;99.90;;;;;;5061759;28;20170;-59
2022/04/21 02:23:45;;;;;;;2.92;2.60;;;11.30;99.90;;;;;;5096511;28;20257;-59
2022/04/21 02:26:11;;;;;;;3.50;2.78;;;11.30;99.90;;;;;;5096031;28;20296;-59
2022/04/21 02:28:38;;;;;;;3.72;2.60;;;11.30;99.90;;;;;;5096015;28;20193;-59
2022/04/21 02:31:04;;;;;;;3.17;2.70;;;11.30;99.90;;;;;;5095760;28;20223;-59
2022/04/21 02:33:31;;;;;;;4.70;2.75;;;11.20;99.90;;;;;;5095828;28;20178;-59
2022/04/21 02:35:56;;;;;;;3.72;2.67;;;11.30;99.90;;;;;;5096052;28;20232;-59
2022/04/21 02:38:22;;;;;;;2.80;2.42;;;11.20;99.90;;;;;;5095805;28;20640;-59
2022/04/21 02:40:48;;;;;;;2.97;2.65;;;11.20;99.90;;;;;;5077734;28;20181;-59
2022/04/21 02:43:14;;;;;;;2.88;2.60;;;11.20;99.90;;;;;;5095694;28;20178;-59
2022/04/21 02:45:41;;;;;;;2.92;2.63;;;11.10;99.90;;;;;;5095475;28;20673;-59
2022/04/21 02:48:08;;;;;;;2.95;2.47;;;11.10;99.90;;;;;;5077890;28;20235;-59
2022/04/21 02:50:34;;;;;;;3.03;2.70;;;11.10;99.90;;;;;;5095719;28;20201;-59
2022/04/21 02:53:00;;;;;;;2.75;2.55;;;11.10;99.90;;;;;;5077555;28;20205;-59
2022/04/21 02:58:11;;;;;;;3.13;2.60;;;11.00;99.90;;;;;;5080353;28;20192;-59
2022/04/21 03:00:36;;;;;;;2.47;2.25;;;11.00;99.90;;;;;;5077614;28;20209;-59
2022/04/21 03:03:02;;;;;;;3.17;2.75;;;11.00;99.90;;;;;;5095387;28;20206;-59
2022/04/21 03:05:28;;;;;;;4.20;2.78;;;11.00;99.90;;;;;;5095661;28;20202;-59
2022/04/21 03:07:54;;;;;;;4.10;2.45;;;10.90;99.90;;;;;;5060590;28;20174;-59
2022/04/21 03:10:20;;;;;;;2.83;2.55;;;10.90;99.90;;;;;;5094562;28;20268;-59
2022/04/21 03:12:46;;;;;;;3.20;2.90;;;10.90;99.90;;;;;;5095114;28;20257;-59
2022/04/21 03:15:12;;;;;;;4.68;3.00;;;10.90;99.90;;;;;;5095015;28;20191;-59
2022/04/21 03:17:39;;;;;;;2.90;2.55;;;10.80;99.90;;;;;;5095291;28;20200;-59
2022/04/21 03:20:05;;;;;;;3.90;3.00;;;10.80;99.90;;;;;;5095123;28;20185;-59
2022/04/21 03:25:17;;;;;;;4.10;3.20;;;10.60;99.90;;;;;;5095101;28;20221;-59
2022/04/21 03:27:46;;;;;;;2.83;2.50;;;10.60;99.90;;;;;;5095264;28;20177;-59
2022/04/21 03:30:13;;;;;;;2.60;2.28;;;10.50;99.90;;;;;;5094879;28;20739;-59
2022/04/21 03:32:39;;;;;;;3.10;2.80;;;10.40;99.90;;;;;;5076822;28;20529;-59
2022/04/21 03:35:06;;;;;;;3.38;2.78;;;10.40;99.90;;;;;;5076574;28;20177;-59
2022/04/21 03:37:32;;;;;;;3.17;2.85;;;10.40;99.90;;;;;;5076667;28;20214;-59
2022/04/21 03:39:58;;;;;;;4.22;3.45;;;10.40;99.90;;;;;;5095097;28;20169;-59
2022/04/21 03:42:31;;;;;;;3.30;2.88;;;10.40;99.90;;;;;;5094800;28;20178;-59
2022/04/21 03:44:57;;;;;;;4.03;2.80;;;10.40;99.90;;;;;;5094585;28;20197;-59
2022/04/21 03:47:23;;;;;;;3.22;2.60;;;10.30;99.90;;;;;;5094542;28;20178;-59
2022/04/21 03:49:49;;;;;;;3.13;2.83;;;10.30;99.90;;;;;;5094555;28;20170;-59
2022/04/21 03:52:17;;;;;;;2.55;2.35;;;10.30;99.90;;;;;;5059668;28;20207;-59
2022/04/21 03:54:43;;;;;;;2.75;2.55;;;10.30;99.90;;;;;;5094538;28;20174;-59
2022/04/21 03:57:08;;;;;;;4.15;2.90;;;10.30;99.90;;;;;;5094311;28;20510;-59
2022/04/21 03:59:35;;;;;;;3.13;2.83;;;10.30;99.90;;;;;;5094652;28;20628;-59
2022/04/21 04:02:04;;;;;;;3.05;2.83;;;10.30;99.90;;;;;;5094146;28;20169;-59
2022/04/21 04:04:34;;;;;;;3.40;3.08;;;10.20;99.90;;;;;;5094287;28;20194;-59
2022/04/21 04:12:31;;;;;;;3.83;3.00;;;10.10;99.90;;;;;;5094459;28;20193;-60
2022/04/21 04:14:56;;;;;;;2.83;2.55;;;10.20;99.90;;;;;;5076198;28;20174;-59
2022/04/21 04:17:22;;;;;;;3.22;2.78;;;10.10;99.90;;;;;;5093999;28;20690;-59
2022/04/21 04:19:48;;;;;;;3.50;3.10;;;10.20;99.90;;;;;;5075947;28;20173;-59
2022/04/21 04:22:15;;;;;;;3.50;3.08;;;10.20;99.90;;;;;;5093217;28;20219;-59
2022/04/21 04:24:41;;;;;;;3.42;2.65;;;10.10;99.90;;;;;;5093826;28;20292;-59
2022/04/21 04:27:07;;;;;;;3.88;3.10;;;10.10;99.90;;;;;;5075823;28;20608;-59
2022/04/21 04:29:32;;;;;;;3.08;2.78;;;10.20;99.90;;;;;;5093665;28;20173;-59
2022/04/21 04:32:00;;;;;;;2.63;2.42;;;10.20;99.90;;;;;;5075519;28;20181;-59
2022/04/21 04:34:26;;;;;;;3.08;2.78;;;10.20;99.90;;;;;;5094006;28;20177;-59
2022/04/21 04:36:52;;;;;;;3.45;2.97;;;10.30;99.90;;;;;;5075815;28;20170;-59
2022/04/21 04:39:18;;;;;;;3.85;3.00;;;10.20;99.90;;;;;;5075621;28;20173;-59
2022/04/21 04:44:28;;;;;;;3.50;3.13;;;10.20;99.90;;;;;;5093444;28;20617;-59
2022/04/21 04:46:55;;;;;;;3.53;2.83;;;10.20;99.90;;;;;;5093780;28;20256;-59
2022/04/21 04:49:20;;;;;;;3.33;2.70;;;10.20;99.90;;;;;;5093470;28;20178;-59
2022/04/21 04:51:46;;;;;;;3.33;2.95;;;10.20;99.90;;;;;;5075471;28;20174;-59
2022/04/21 04:54:14;;;;;;;2.92;2.63;;;10.20;99.90;;;;;;5093401;28;20560;-59
2022/04/21 04:56:41;;;;;;;3.58;3.05;;;10.20;99.90;;;;;;5093242;28;20188;-59
2022/04/21 04:59:07;;;;;;;3.55;3.05;;;10.30;99.90;;;;;;5093432;28;20620;-59
2022/04/21 05:01:42;;;;;;;3.40;3.10;;;10.20;99.90;;;;;;5075330;28;20189;-60
2022/04/21 05:04:10;;;;;;;3.72;2.92;;;10.10;99.90;;;;;;5093402;28;20200;-59
2022/04/21 05:06:42;;;;;;;3.95;3.20;;;10.10;99.90;;;;;;5093231;28;20263;-59
2022/04/21 05:09:10;;;;;;;3.58;2.85;;;10.20;99.90;;;;;;5092264;28;20177;-59
2022/04/21 05:11:40;;;;;;;3.22;2.92;;;10.20;99.90;;;;;;5093075;28;20181;-59
2022/04/21 05:14:10;;;;;;;3.90;3.13;;;10.10;99.90;;;;;;5075480;28;20176;-59
2022/04/21 05:16:37;;;;;;;3.75;3.25;;;10.20;99.90;;;;;;5093178;28;20178;-59
2022/04/21 05:19:14;;;;;;;3.20;2.90;;;10.20;99.90;;;;;;5093146;28;20177;-60
2022/04/21 05:21:40;;;;;;;4.82;3.55;;;10.20;99.90;;;;;;5075205;28;20180;-60
2022/04/21 05:24:07;;;;;;;3.70;3.28;;;10.30;99.90;;;;;;5075196;28;20632;-59
2022/04/21 05:26:34;;;;;;;4.45;2.90;;;10.30;99.90;;;;;;5092919;28;20237;-60
2022/04/21 05:30:55;;;;;;;4.07;3.15;;;10.30;99.90;;;;;;5093154;28;20215;-60
2022/04/21 05:31:54;;;;;;;3.30;3.00;;;10.50;99.90;;;;;;5077786;28;20181;-60
2022/04/21 05:34:20;;;;;;;3.90;3.05;;;10.50;99.90;;;;;;5097220;28;20182;-60
2022/04/21 05:36:46;;;;;;;3.65;3.00;;;10.50;99.90;;;;;;5097161;28;20170;-60
2022/04/21 05:39:12;;;;;;;3.65;3.20;;;10.40;99.90;;;;;;5097097;28;20173;-60
2022/04/21 05:41:38;;;;;;;3.83;3.33;;;10.40;99.90;;;;;;5079099;28;20205;-60
2022/04/21 05:44:06;;;;;;;5.13;3.28;;;10.50;99.90;;;;;;5096875;28;20174;-60
2022/04/21 05:46:32;;;;;;;3.05;2.75;;;10.70;99.90;;;;;;5096721;28;20222;-60
2022/04/21 05:48:58;;;;;;;4.28;3.25;;;10.80;99.90;;;;;;5097288;28;20746;-60
2022/04/21 05:51:24;;;;;;;3.28;3.05;;;11.00;99.90;;;;;;5096854;28;20258;-60
2022/04/21 05:53:50;;;;;;;3.20;2.90;;;11.10;99.90;;;;;;5096776;28;20617;-59
2022/04/21 05:56:16;;;;;;;3.38;3.08;;;11.40;99.90;;;;;;5078489;28;20513;-60
2022/04/21 05:58:42;;;;;;;3.78;3.00;;;11.50;99.90;;;;;;5061739;28;20185;-59
2022/04/21 06:01:09;;;;;;;2.80;2.58;;;11.60;99.90;;;;;;5096410;28;20178;-58
2022/04/21 06:03:41;;;;;;;3.38;3.08;;;11.70;99.90;;;;;;5096327;28;20232;-60
2022/04/21 06:06:09;;;;;;;3.20;2.90;;;11.90;99.90;;;;;;5096575;28;20214;-60
2022/04/21 06:08:39;;;;;;;3.20;2.88;;;11.90;99.90;;;;;;5096514;28;20186;-61
2022/04/21 06:11:05;;;;;;;3.58;2.97;;;11.90;99.90;;;;;;5096452;28;20252;-60
2022/04/21 06:13:31;;;;;;;3.97;3.20;;;12.10;99.90;;;;;;5096345;28;20260;-60
2022/04/21 06:15:58;;;;;;;3.80;2.90;;;12.20;99.90;;;;;;5096242;28;20228;-60
2022/04/21 06:18:25;;;;;;;3.72;3.10;;;12.30;99.90;;;;;;5096469;28;20694;-60
2022/04/21 06:20:54;;;;;;;3.97;3.03;;;12.40;99.90;;;;;;5096276;28;20633;-59
2022/04/21 06:23:21;;;;;;;3.72;2.90;;;12.40;99.90;;;;;;5096461;28;20201;-58
2022/04/21 06:25:47;;;;;;;3.55;3.13;;;12.60;99.90;;;;;;5096184;28;20194;-58
2022/04/21 06:28:13;;;;;;;3.70;3.30;;;12.60;99.90;;;;;;5078011;28;20243;-58
2022/04/21 06:30:39;;;;;;;3.20;2.88;;;12.60;99.90;;;;;;5096129;28;20166;-60
2022/04/21 06:33:05;;;;;;;3.63;3.03;;;12.70;99.90;;;;;;5077873;28;20178;-58
2022/04/21 06:35:31;;;;;;;3.50;3.00;;;12.90;99.90;;;;;;5078108;28;20316;-60
2022/04/21 06:37:57;;;;;;;3.17;2.65;;;13.00;99.90;;;;;;5096115;28;20202;-60
2022/04/21 06:40:23;;;;;;;3.35;3.05;;;13.10;99.90;;;;;;5095704;28;20228;-58
2022/04/21 06:42:49;;;;;;;3.05;2.72;;;13.30;99.90;;;;;;5095692;28;20668;-59
2022/04/21 06:48:02;;;;;;;3.53;2.83;;;13.60;99.90;;;;;;5096189;28;20185;-59
2022/04/21 06:50:32;;;;;;;3.72;3.20;;;13.50;99.90;;;;;;5095760;28;20170;-59
2022/04/21 06:52:59;;;;;;;6.68;3.00;;;13.60;99.90;;;;;;5095650;28;20170;-60
2022/04/21 06:55:25;;;;;;;3.17;2.83;;;13.80;99.90;;;;;;5095545;28;20170;-59
2022/04/21 06:57:50;;;;;;;3.45;2.75;;;13.80;99.90;;;;;;5077659;28;20235;-59
2022/04/21 07:00:16;;;;;;;3.10;2.70;;;13.60;99.90;;;;;;5095620;28;20178;-59
2022/04/21 07:02:42;;;;;;;2.65;2.40;;;13.90;99.90;;;;;;5095340;28;20181;-60
2022/04/21 07:05:13;;;;;;;3.15;2.50;;;14.00;99.90;;;;;;5095293;28;20270;-60
2022/04/21 07:07:40;;;;;;;2.85;2.60;;;14.10;98.80;;;;;;5095401;28;20177;-60
2022/04/21 07:10:07;;;;;;;2.90;2.15;;;14.10;98.50;;;;;;5095146;28;20174;-60
2022/04/21 07:12:34;;;;;;;3.72;2.40;;;14.00;98.40;;;;;;5095406;28;20174;-58
2022/04/21 07:15:02;;;;;;;3.08;2.30;;;14.20;98.40;;;;;;5095242;28;20185;-58
2022/04/21 07:17:27;;;;;;;2.70;2.50;;;14.30;98.10;;;;;;5095216;28;20177;-60
2022/04/21 07:19:53;;;;;;;3.00;2.20;;;14.40;97.80;;;;;;5095091;28;20645;-61
2022/04/21 07:22:20;;;;;;;4.15;2.60;;;14.40;97.90;;;;;;5094951;28;20174;-60
2022/04/21 07:24:47;;;;;;;2.70;1.90;;;14.70;97.20;;;;;;5094811;28;20305;-59
2022/04/21 07:27:13;;;;;;;3.53;2.20;;;14.70;96.10;;;;;;5076931;28;20185;-59
2022/04/21 07:29:39;;;;;;;2.60;1.80;;;14.50;95.50;;;;;;5094893;28;20170;-58
2022/04/21 07:32:05;;;;;;;2.65;2.20;;;14.60;97.00;;;;;;5094805;28;20201;-59
2022/04/21 07:34:31;;;;;;;2.30;2.00;;;14.70;96.20;;;;;;5094786;28;20182;-58
2022/04/21 07:36:57;;;;;;;2.92;2.10;;;14.70;96.00;;;;;;5094737;28;20166;-58
2022/04/21 07:39:23;;;;;;;2.65;1.80;;;14.80;95.90;;;;;;5094583;28;20178;-58
2022/04/21 07:41:49;;;;;;;3.13;1.98;;;14.80;94.40;;;;;;5094847;28;20253;-58
2022/04/21 07:44:15;;;;;;;3.92;2.30;;;14.80;94.60;;;;;;5094512;28;20178;-58
2022/04/21 07:46:41;;;;;;;2.35;2.05;;;15.00;94.80;;;;;;5094554;28;20616;-58
2022/04/21 07:51:50;;;;;;;2.17;1.90;;;15.50;95.80;;;;;;5094739;28;20180;-59
2022/04/21 07:54:16;;;;;;;2.40;1.98;;;15.60;93.70;;;;;;5094502;28;20177;-59
2022/04/21 07:56:42;;;;;;;2.47;1.83;;;15.50;93.60;;;;;;5094309;28;20657;-58
2022/04/21 07:59:08;;;;;;;2.35;1.98;;;15.70;93.90;;;;;;5076209;28;20177;-58
2022/04/21 08:01:33;;;;;;;2.40;2.17;;;15.60;92.80;;;;;;5094151;28;20276;-58
2022/04/21 08:04:02;;;;;;;2.80;1.75;;;15.50;92.20;;;;;;5094049;28;20235;-58
2022/04/21 08:06:28;;;;;;;2.10;1.88;;;15.50;93.80;;;;;;5094110;28;20300;-58
2022/04/21 08:08:55;;;;;;;2.53;1.98;;;15.70;92.40;;;;;;5094332;28;20260;-58
2022/04/21 08:11:21;;;;;;;2.38;1.92;;;15.70;91.60;;;;;;5094230;28;20174;-58
2022/04/21 08:13:47;;;;;;;2.65;2.00;;;15.80;91.60;;;;;;5075961;28;20567;-59
2022/04/21 08:16:13;;;;;;;2.08;1.88;;;16.00;91.10;;;;;;5076112;28;20231;-59
2022/04/21 08:18:38;;;;;;;1.92;1.67;;;16.10;92.10;;;;;;5093828;28;20196;-59
2022/04/21 08:21:05;;;;;;;2.17;1.98;;;16.30;90.90;;;;;;5093814;28;20178;-58
2022/04/21 08:23:35;;;;;;;2.17;1.98;;;16.10;90.80;;;;;;5093912;28;20174;-59
2022/04/21 08:34:24;;;;;;;2.60;2.03;;;16.40;88.40;;;;;;5094133;28;20714;-59
2022/04/21 08:36:49;;;;;;;1.98;1.75;;;16.50;87.30;;;;;;5093836;28;20520;-59
2022/04/21 08:39:15;;;;;;;2.28;1.77;;;16.60;88.60;;;;;;5075681;28;20253;-62
2022/04/21 08:41:47;;;;;;;2.92;2.05;;;16.30;87.00;;;;;;5093530;28;20166;-59
2022/04/21 08:44:18;;;;;;;2.80;2.17;;;16.40;86.10;;;;;;5093887;28;20178;-59
2022/04/21 08:46:45;;;;;;;2.47;2.28;;;16.40;85.80;;;;;;5093564;28;20251;-58
2022/04/21 08:49:14;;;;;;;2.10;1.60;;;16.50;86.40;;;;;;5093481;28;20280;-58
2022/04/21 08:51:40;;;;;;;2.33;1.95;;;16.80;87.40;;;;;;5093396;28;20201;-59
2022/04/21 08:54:06;;;;;;;2.70;2.10;;;17.00;88.00;;;;;;5093442;28;20181;-59
2022/04/21 08:56:32;;;;;;;2.47;1.83;;;16.90;84.20;;;;;;5093314;28;20178;-59
2022/04/21 08:58:58;;;;;;;3.00;2.10;;;17.00;87.30;;;;;;5058811;28;20205;-59
2022/04/21 09:01:25;;;;;;;2.67;2.08;;;17.20;83.20;;;;;;5093467;28;20749;-59
2022/04/21 09:03:50;;;;;;;2.58;1.85;;;17.00;85.40;;;;;;5093302;28;20200;-58
2022/04/21 09:06:16;;;;;;;3.20;1.85;;;17.30;87.50;;;;;;5093367;28;20297;-59
2022/04/21 09:08:42;;;;;;;2.20;2.00;;;17.40;82.90;;;;;;5074576;28;20177;-59
2022/04/21 09:11:11;;;;;;;2.00;1.80;;;17.40;84.40;;;;;;5058713;28;20184;-59
2022/04/21 09:13:41;;;;;;;2.08;1.90;;;17.40;85.00;;;;;;5093404;28;20758;-59
2022/04/21 09:16:09;;;;;;;3.05;1.83;;;17.50;83.90;;;;;;5093620;28;20189;-58
2022/04/21 09:18:41;;;;;;;2.80;2.08;;;17.70;86.40;;;;;;5093265;28;20186;-59
2022/04/21 09:21:14;;;;;;;2.58;2.13;;;17.70;80.80;;;;;;5093010;28;20216;-59
2022/04/21 09:23:40;;;;;;;1.88;1.67;;;17.50;83.20;;;;;;5093215;28;20637;-59
2022/04/21 09:26:08;;;;;;;2.78;1.95;;;17.90;85.80;;;;;;5075192;28;20214;-59
2022/04/21 09:28:34;;;;;;;2.60;1.75;;;18.00;82.90;;;;;;5093145;28;20705;-59
2022/04/21 09:31:00;;;;;;;2.72;1.77;;;18.10;82.80;;;;;;5092986;28;20185;-59
2022/04/21 09:33:27;;;;;;;2.88;1.83;;;18.10;79.50;;;;;;5093544;28;20251;-59
2022/04/21 09:35:55;;;;;;;2.47;2.10;;;17.90;77.40;;;;;;5092945;28;20174;-59
2022/04/21 09:38:21;;;;;;;2.40;2.10;;;17.70;78.30;;;;;;5093114;28;20185;-59
2022/04/21 09:40:47;;;;;;;2.30;2.10;;;17.80;77.40;;;;;;5092916;28;20179;-58
2022/04/21 09:43:13;;;;;;;2.97;2.30;;;17.90;78.30;;;;;;5074843;28;20178;-59
2022/04/21 09:48:26;;;;;;;3.20;2.08;;;17.90;75.60;;;;;;5092877;28;20591;-59
2022/04/21 09:50:55;;;;;;;2.70;1.70;;;17.80;76.60;;;;;;5093090;28;20173;-59
2022/04/21 09:53:25;;;;;;;2.75;1.70;;;17.80;76.20;;;;;;5093085;28;20189;-59
2022/04/21 09:55:52;;;;;;;2.53;1.80;;;17.80;75.60;;;;;;5093003;28;20671;-59
2022/04/21 09:58:18;;;;;;;2.50;1.80;;;17.90;77.40;;;;;;5092785;28;20256;-59
2022/04/21 10:00:45;;;;;;;3.03;1.95;;;18.30;78.70;;;;;;5074644;28;20170;-59
2022/04/21 10:03:11;;;;;;;2.60;1.73;;;18.50;73.90;;;;;;5092808;28;20209;-59
2022/04/21 10:05:41;;;;;;;2.20;2.00;;;18.60;75.50;;;;;;5092896;28;20205;-59
2022/04/21 10:08:09;;;;;;;2.10;1.67;;;18.30;71.50;;;;;;5092980;28;20186;-59
2022/04/21 10:10:36;;;;;;;2.72;2.05;;;18.40;71.60;;;;;;5092799;28;20502;-59
2022/04/21 10:13:04;;;;;;;1.95;1.75;;;18.30;72.90;;;;;;5092656;28;20193;-59
2022/04/21 10:15:30;;;;;;;3.33;1.67;;;18.20;71.30;;;;;;5092515;28;20181;-59
2022/04/21 10:17:56;;;;;;;2.38;1.42;;;18.40;73.30;;;;;;5092775;28;20170;-59
2022/04/21 10:20:24;;;;;;;1.55;1.45;;;18.80;72.50;;;;;;5077281;28;20178;-59
2022/04/21 10:22:54;;;;;;;2.70;1.70;;;18.80;70.70;;;;;;5096353;28;20529;-59
2022/04/21 10:25:32;;;;;;;1.90;1.55;;;19.00;69.10;;;;;;5077905;28;20208;-59
2022/04/21 10:27:58;;;;;;;2.28;1.58;;;19.30;69.90;;;;;;5096214;28;20174;-59
2022/04/21 10:30:31;;;;;;;1.63;1.50;;;19.00;66.70;;;;;;5096217;28;20589;-59
2022/04/21 10:33:04;;;;;;;1.63;1.40;;;18.80;67.70;;;;;;5096116;28;20246;-59
2022/04/21 10:35:33;;;;;;;2.95;1.85;;;19.00;68.50;;;;;;5078910;28;20228;-59
2022/04/21 10:38:17;;;;;;;2.05;1.85;;;18.90;67.30;;;;;;5095868;28;20660;-59
2022/04/21 10:41:06;;;;;;;3.17;2.03;;;19.20;65.00;;;;;;5095835;28;20285;-59
2022/04/21 10:43:50;;;;;;;2.13;1.92;;;19.00;67.90;;;;;;5095884;28;20166;-60
2022/04/21 10:46:29;;;;;;;3.05;1.90;;;18.80;67.50;;;;;;5095724;28;20244;-60
2022/04/21 10:48:55;;;;;;;2.65;1.80;;;18.90;68.60;;;;;;5078739;28;20706;-61
2022/04/21 10:57:16;;;;;;;1.45;1.35;;;19.20;65.70;;;;;;5080718;28;20231;-60
2022/04/21 11:00:08;;;;;;;2.22;1.58;;;19.10;64.70;;;;;;5095620;28;20194;-59
2022/04/21 11:02:38;;;;;;;2.78;2.05;;;18.90;62.50;;;;;;5096004;28;20178;-59
2022/04/21 11:05:49;;;;;;;2.60;1.75;;;18.60;62.40;;;;;;5095368;28;20247;-59
2022/04/21 11:08:18;;;;;;;2.22;1.77;;;18.70;63.60;;;;;;5091271;28;20323;-59
2022/04/21 11:10:44;;;;;;;1.73;1.50;;;18.60;60.60;;;;;;5077360;28;20213;-59
2022/04/21 11:13:19;;;;;;;3.20;1.65;;;18.70;63.10;;;;;;5095310;28;20236;-59
2022/04/21 11:15:45;;;;;;;1.77;1.60;;;18.80;61.10;;;;;;5095200;28;20174;-59
2022/04/21 11:18:31;;;;;;;2.00;1.75;;;18.90;60.40;;;;;;5095674;28;20231;-59
2022/04/21 11:21:22;;;;;;;1.55;1.40;;;18.90;63.00;;;;;;5095161;28;20522;-59
2022/04/21 11:23:48;;;;;;;1.90;1.70;;;18.90;61.30;;;;;;5094978;28;20178;-59
2022/04/21 11:26:13;;;;;;;2.15;1.80;;;19.20;62.50;;;;;;5094781;28;20296;-59
2022/04/21 11:28:46;;;;;;;2.00;1.80;;;19.40;62.40;;;;;;5095114;28;20248;-59
2022/04/21 11:31:12;;;;;;;2.72;1.88;;;19.40;60.40;;;;;;5094663;28;20232;-59
2022/04/21 11:33:44;;;;;;;2.20;1.52;;;19.40;60.80;;;;;;5095126;28;20225;-59
2022/04/21 11:36:14;;;;;;;2.00;1.70;;;19.40;60.40;;;;;;5094868;28;20173;-59
2022/04/21 11:38:47;;;;;;;1.70;1.60;;;19.20;59.80;;;;;;5094722;28;20198;-59
2022/04/21 11:41:15;;;;;;;2.58;1.42;;;19.10;61.90;;;;;;5095061;28;20664;-59
2022/04/21 11:43:48;;;;;;;3.13;1.70;;;19.10;59.80;;;;;;5094782;28;20174;-59
2022/04/21 11:46:14;;;;;;;2.33;1.58;;;19.10;58.50;;;;;;5094526;28;20209;-60
2022/04/21 11:48:41;;;;;;;1.73;1.48;;;19.10;57.70;;;;;;5094827;28;20178;-60
2022/04/21 11:51:08;;;;;;;1.98;1.77;;;19.20;58.20;;;;;;5076402;28;20538;-59
2022/04/21 11:53:40;;;;;;;3.15;1.75;;;19.50;59.70;;;;;;5094375;28;20182;-59
2022/04/21 11:56:08;;;;;;;2.65;1.85;;;19.30;56.70;;;;;;5094538;28;20177;-59
2022/04/21 11:58:42;;;;;;;2.50;1.88;;;19.10;58.20;;;;;;5094647;28;20181;-59
2022/04/21 12:07:00;;;;;;;2.75;1.88;;;19.20;55.60;;;;;;5094363;28;20250;-60
2022/04/21 12:09:29;;;;;;;2.10;1.70;;;19.30;57.00;;;;;;5094287;28;20252;-60
2022/04/21 12:12:00;;;;;;;2.22;1.45;;;19.40;55.20;;;;;;5094093;28;20661;-60
2022/04/21 12:14:27;;;;;;;1.92;1.55;;;19.30;54.90;;;;;;5094404;28;20257;-60
2022/04/21 12:17:00;;;;;;;1.60;1.40;;;19.30;56.60;;;;;;5094339;28;20182;-61
2022/04/21 12:19:33;;;;;;;3.20;1.65;;;19.20;57.70;;;;;;5094015;28;20173;-60
2022/04/21 12:22:07;;;;;;;3.85;1.77;;;19.20;56.40;;;;;;5094117;28;20188;-62
2022/04/21 12:24:37;;;;;;;2.22;1.80;;;19.10;56.40;;;;;;5093881;28;20182;-60
2022/04/21 12:27:12;;;;;;;2.45;1.40;;;19.20;56.90;;;;;;5094030;28;20182;-60
2022/04/21 12:30:00;;;;;;;2.15;1.52;;;19.30;56.90;;;;;;5093836;28;20636;-60
2022/04/21 12:32:39;;;;;;;1.50;1.40;;;19.60;57.30;;;;;;5093916;28;20193;-61
2022/04/21 12:35:10;;;;;;;2.38;1.20;;;19.40;56.70;;;;;;5093589;28;20174;-59
2022/04/21 12:37:37;;;;;;;2.50;1.40;;;19.80;59.40;;;;;;5093956;28;20533;-60
2022/04/21 12:40:08;;;;;;;2.03;1.38;;;19.80;55.50;;;;;;5093605;28;20174;-60
2022/04/21 12:42:34;;;;;;;1.67;1.50;;;19.70;54.80;;;;;;5093056;28;20174;-60
2022/04/21 12:45:01;;;;;;;1.60;1.40;;;19.50;53.60;;;;;;5093385;28;20220;-60
2022/04/21 12:47:27;;;;;;;2.13;1.50;;;19.80;55.70;;;;;;5093779;28;20298;-60
2022/04/21 12:49:59;;;;;;;2.40;1.63;;;19.80;53.60;;;;;;5093706;28;20170;-60
2022/04/21 12:52:39;;;;;;;2.20;1.77;;;19.60;53.90;;;;;;5093727;28;20574;-61
2022/04/21 12:55:11;;;;;;;1.80;1.48;;;19.50;54.80;;;;;;5093501;28;20543;-60
2022/04/21 12:57:38;;;;;;;2.10;1.60;;;19.50;54.80;;;;;;5093493;28;20166;-60
2022/04/21 13:00:07;;;;;;;1.98;1.40;;;19.50;56.40;;;;;;5093299;28;20245;-60
2022/04/21 13:02:32;;;;;;;1.55;1.30;;;19.50;56.60;;;;;;5093427;28;20277;-60
2022/04/21 13:04:58;;;;;;;1.70;1.60;;;19.60;57.30;;;;;;5093378;28;20352;-60
2022/04/21 13:07:24;;;;;;;1.90;1.50;;;19.60;57.10;;;;;;5075565;28;20185;-59
2022/04/21 13:09:50;;;;;;;1.73;1.38;;;19.20;54.60;;;;;;5093236;28;20579;-60
2022/04/21 13:12:16;;;;;;;1.77;1.50;;;19.30;56.70;;;;;;5093199;28;20174;-60
2022/04/21 13:14:42;;;;;;;1.27;1.05;;;19.50;56.70;;;;;;5093273;28;20641;-61
2022/04/21 13:17:08;;;;;;;1.63;1.33;;;19.50;55.50;;;;;;5093426;28;20188;-60
2022/04/21 13:19:34;;;;;;;2.20;1.42;;;19.40;56.20;;;;;;5093224;28;20172;-60
2022/04/21 13:22:01;;;;;;;2.10;1.50;;;19.40;55.80;;;;;;5075081;28;20579;-61
2022/04/21 13:24:28;;;;;;;1.95;1.48;;;19.40;56.10;;;;;;5093155;28;20189;-60
2022/04/21 13:26:55;;;;;;;2.80;1.70;;;19.40;55.50;;;;;;5075160;28;20219;-60
2022/04/21 13:29:21;;;;;;;2.55;1.90;;;19.40;54.50;;;;;;5093065;28;20544;-60
2022/04/21 13:34:32;;;;;;;2.08;1.83;;;19.50;55.20;;;;;;5093306;28;20642;-60
2022/04/21 13:36:58;;;;;;;2.00;1.70;;;19.60;53.50;;;;;;5093132;28;20261;-60
2022/04/21 13:39:23;;;;;;;2.63;1.55;;;19.60;54.10;;;;;;5092861;28;20261;-60
2022/04/21 13:41:49;;;;;;;1.70;1.30;;;19.50;51.70;;;;;;5092826;28;20178;-60